sensor_id;sensor_type;location;lat;lon;timestamp;pressure;altitude;pressure_sealevel;temperature;humidity
11672;BME280;5892;43.412;24.612;2022-10-15T00:01:14;100427.56;;;13.37;100.00
11672;BME280;5892;43.412;24.612;2022-10-15T00:03:42;100432.41;;;13.49;99.78
11672;BME280;5892;43.412;24.612;2022-10-15T00:06:11;100431.09;;;13.46;99.06
11672;BME280;5892;43.412;24.612;2022-10-15T00:08:39;100425.78;;;13.50;99.03
11672;BME280;5892;43.412;24.612;2022-10-15T00:11:10;100430.28;;;13.46;98.81
11672;BME280;5892;43.412;24.612;2022-10-15T00:13:37;100427.06;;;13.44;98.99
11672;BME280;5892;43.412;24.612;2022-10-15T00:16:06;100430.94;;;13.51;99.06
11672;BME280;5892;43.412;24.612;2022-10-15T00:18:33;100400.56;;;13.22;97.78
11672;BME280;5892;43.412;24.612;2022-10-15T00:21:00;100429.34;;;13.33;98.01
11672;BME280;5892;43.412;24.612;2022-10-15T00:23:27;100423.38;;;13.23;98.08
11672;BME280;5892;43.412;24.612;2022-10-15T00:26:02;100413.16;;;13.06;98.86
11672;BME280;5892;43.412;24.612;2022-10-15T00:28:30;100430.63;;;13.01;99.77
11672;BME280;5892;43.412;24.612;2022-10-15T00:31:02;100412.19;;;12.93;100.00
11672;BME280;5892;43.412;24.612;2022-10-15T00:33:29;100407.16;;;12.95;99.97
11672;BME280;5892;43.412;24.612;2022-10-15T00:36:01;100408.31;;;12.86;100.00
11672;BME280;5892;43.412;24.612;2022-10-15T00:38:29;100404.09;;;12.71;100.00
11672;BME280;5892;43.412;24.612;2022-10-15T00:40:56;100413.63;;;12.73;100.00
11672;BME280;5892;43.412;24.612;2022-10-15T00:43:42;100395.34;;;12.60;100.00
11672;BME280;5892;43.412;24.612;2022-10-15T00:46:21;100415.09;;;12.71;100.00
11672;BME280;5892;43.412;24.612;2022-10-15T00:48:51;100409.09;;;12.69;100.00
11672;BME280;5892;43.412;24.612;2022-10-15T00:51:20;100415.72;;;12.68;100.00
11672;BME280;5892;43.412;24.612;2022-10-15T00:53:49;100414.44;;;12.74;100.00
11672;BME280;5892;43.412;24.612;2022-10-15T00:56:17;100406.03;;;12.70;100.00
11672;BME280;5892;43.412;24.612;2022-10-15T00:58:47;100416.69;;;12.72;100.00
11672;BME280;5892;43.412;24.612;2022-10-15T01:01:15;100417.84;;;12.71;100.00
11672;BME280;5892;43.412;24.612;2022-10-15T01:03:42;100413.94;;;12.63;100.00
11672;BME280;5892;43.412;24.612;2022-10-15T01:06:09;100427.84;;;12.67;100.00
11672;BME280;5892;43.412;24.612;2022-10-15T01:08:38;100429.47;;;12.59;100.00
11672;BME280;5892;43.412;24.612;2022-10-15T01:11:16;100430.59;;;12.58;100.00
11672;BME280;5892;43.412;24.612;2022-10-15T01:13:53;100417.50;;;12.55;100.00
11672;BME280;5892;43.412;24.612;2022-10-15T01:16:30;100422.34;;;12.50;100.00
11672;BME280;5892;43.412;24.612;2022-10-15T01:19:00;100421.84;;;12.56;100.00
11672;BME280;5892;43.412;24.612;2022-10-15T01:21:31;100416.53;;;12.60;100.00
11672;BME280;5892;43.412;24.612;2022-10-15T01:24:33;100416.69;;;12.63;100.00
11672;BME280;5892;43.412;24.612;2022-10-15T01:27:34;100429.13;;;12.52;100.00
11672;BME280;5892;43.412;24.612;2022-10-15T01:30:18;100426.53;;;12.47;100.00
11672;BME280;5892;43.412;24.612;2022-10-15T01:32:56;100430.41;;;12.46;100.00
11672;BME280;5892;43.412;24.612;2022-10-15T01:35:31;100431.56;;;12.45;100.00
11672;BME280;5892;43.412;24.612;2022-10-15T01:38:06;100434.78;;;12.47;100.00
11672;BME280;5892;43.412;24.612;2022-10-15T01:40:39;100417.78;;;12.37;100.00
11672;BME280;5892;43.412;24.612;2022-10-15T01:43:12;100390.75;;;12.21;100.00
11672;BME280;5892;43.412;24.612;2022-10-15T01:45:47;100419.91;;;12.48;100.00
11672;BME280;5892;43.412;24.612;2022-10-15T01:48:16;100425.91;;;12.50;100.00
11672;BME280;5892;43.412;24.612;2022-10-15T01:50:45;100398.22;;;12.38;100.00
11672;BME280;5892;43.412;24.612;2022-10-15T01:53:16;100425.09;;;12.50;100.00
11672;BME280;5892;43.412;24.612;2022-10-15T01:55:44;100417.47;;;12.47;100.00
11672;BME280;5892;43.412;24.612;2022-10-15T01:58:15;100417.00;;;12.45;100.00
11672;BME280;5892;43.412;24.612;2022-10-15T02:00:44;100415.69;;;12.42;100.00
11672;BME280;5892;43.412;24.612;2022-10-15T02:03:12;100408.09;;;12.39;100.00
11672;BME280;5892;43.412;24.612;2022-10-15T02:05:47;100411.50;;;12.45;100.00
11672;BME280;5892;43.412;24.612;2022-10-15T02:08:24;100418.59;;;12.46;100.00
11672;BME280;5892;43.412;24.612;2022-10-15T02:10:58;100424.09;;;12.46;100.00
11672;BME280;5892;43.412;24.612;2022-10-15T02:13:31;100417.97;;;12.40;100.00
11672;BME280;5892;43.412;24.612;2022-10-15T02:16:11;100375.53;;;12.15;100.00
11672;BME280;5892;43.412;24.612;2022-10-15T02:18:41;100419.91;;;12.40;100.00
11672;BME280;5892;43.412;24.612;2022-10-15T02:21:15;100426.81;;;12.37;100.00
11672;BME280;5892;43.412;24.612;2022-10-15T02:23:48;100416.50;;;12.43;100.00
11672;BME280;5892;43.412;24.612;2022-10-15T02:26:18;100419.91;;;12.40;100.00
11672;BME280;5892;43.412;24.612;2022-10-15T02:28:52;100416.00;;;12.41;100.00
11672;BME280;5892;43.412;24.612;2022-10-15T02:31:22;100435.72;;;12.43;100.00
11672;BME280;5892;43.412;24.612;2022-10-15T02:33:51;100422.28;;;12.32;100.00
11672;BME280;5892;43.412;24.612;2022-10-15T02:36:20;100436.47;;;12.26;100.00
11672;BME280;5892;43.412;24.612;2022-10-15T02:38:49;100426.59;;;12.16;100.00
11672;BME280;5892;43.412;24.612;2022-10-15T02:41:17;100426.09;;;12.14;100.00
11672;BME280;5892;43.412;24.612;2022-10-15T02:43:44;100433.88;;;12.12;100.00
11672;BME280;5892;43.412;24.612;2022-10-15T02:46:12;100441.81;;;12.14;100.00
11672;BME280;5892;43.412;24.612;2022-10-15T02:48:41;100441.13;;;12.08;100.00
11672;BME280;5892;43.412;24.612;2022-10-15T02:51:08;100440.75;;;12.01;100.00
11672;BME280;5892;43.412;24.612;2022-10-15T02:53:35;100425.72;;;11.99;100.00
11672;BME280;5892;43.412;24.612;2022-10-15T02:56:02;100432.66;;;11.96;100.00
11672;BME280;5892;43.412;24.612;2022-10-15T02:58:29;100428.94;;;11.92;100.00
11672;BME280;5892;43.412;24.612;2022-10-15T03:00:56;100431.31;;;11.85;100.00
11672;BME280;5892;43.412;24.612;2022-10-15T03:03:23;100435.69;;;11.86;100.00
11672;BME280;5892;43.412;24.612;2022-10-15T03:05:51;100435.41;;;11.65;100.00
11672;BME280;5892;43.412;24.612;2022-10-15T03:08:18;100441.34;;;11.67;100.00
11672;BME280;5892;43.412;24.612;2022-10-15T03:10:45;100429.59;;;11.67;100.00
11672;BME280;5892;43.412;24.612;2022-10-15T03:13:12;100432.94;;;11.64;100.00
11672;BME280;5892;43.412;24.612;2022-10-15T03:15:39;100442.13;;;11.59;100.00
11672;BME280;5892;43.412;24.612;2022-10-15T03:18:06;100309.59;;;10.75;100.00
11672;BME280;5892;43.412;24.612;2022-10-15T03:20:34;100437.06;;;11.53;100.00
11672;BME280;5892;43.412;24.612;2022-10-15T03:23:02;100445.06;;;11.63;100.00
11672;BME280;5892;43.412;24.612;2022-10-15T03:25:29;100447.88;;;11.49;100.00
11672;BME280;5892;43.412;24.612;2022-10-15T03:27:56;100451.31;;;11.55;100.00
11672;BME280;5892;43.412;24.612;2022-10-15T03:30:22;100461.59;;;11.49;100.00
11672;BME280;5892;43.412;24.612;2022-10-15T03:32:49;100458.69;;;11.45;100.00
11672;BME280;5892;43.412;24.612;2022-10-15T03:35:16;100455.84;;;11.37;100.00
11672;BME280;5892;43.412;24.612;2022-10-15T03:37:44;100452.81;;;11.38;100.00
11672;BME280;5892;43.412;24.612;2022-10-15T03:40:13;100451.25;;;11.24;100.00
11672;BME280;5892;43.412;24.612;2022-10-15T03:42:40;100457.31;;;11.34;100.00
11672;BME280;5892;43.412;24.612;2022-10-15T03:45:08;100469.09;;;11.35;100.00
11672;BME280;5892;43.412;24.612;2022-10-15T03:47:35;100460.41;;;11.41;100.00
11672;BME280;5892;43.412;24.612;2022-10-15T03:50:02;100466.03;;;11.36;100.00
11672;BME280;5892;43.412;24.612;2022-10-15T03:52:29;100469.59;;;11.37;100.00
11672;BME280;5892;43.412;24.612;2022-10-15T03:54:56;100472.56;;;11.27;100.00
11672;BME280;5892;43.412;24.612;2022-10-15T03:57:24;100473.81;;;11.21;100.00
11672;BME280;5892;43.412;24.612;2022-10-15T03:59:51;100472.69;;;11.22;100.00
11672;BME280;5892;43.412;24.612;2022-10-15T04:02:18;100471.06;;;11.21;100.00
11672;BME280;5892;43.412;24.612;2022-10-15T04:04:45;100477.38;;;11.21;100.00
11672;BME280;5892;43.412;24.612;2022-10-15T04:07:12;100450.53;;;10.96;100.00
11672;BME280;5892;43.412;24.612;2022-10-15T04:09:39;100477.13;;;11.09;100.00
11672;BME280;5892;43.412;24.612;2022-10-15T04:12:06;100469.63;;;11.01;100.00
11672;BME280;5892;43.412;24.612;2022-10-15T04:14:34;100471.66;;;10.95;100.00
11672;BME280;5892;43.412;24.612;2022-10-15T04:17:01;100470.97;;;10.90;100.00
11672;BME280;5892;43.412;24.612;2022-10-15T04:19:28;100469.44;;;10.84;100.00
11672;BME280;5892;43.412;24.612;2022-10-15T04:21:56;100473.13;;;10.79;100.00
11672;BME280;5892;43.412;24.612;2022-10-15T04:24:23;100478.47;;;10.84;100.00
11672;BME280;5892;43.412;24.612;2022-10-15T04:26:50;100473.13;;;10.79;100.00
11672;BME280;5892;43.412;24.612;2022-10-15T04:29:17;100475.16;;;10.74;100.00
11672;BME280;5892;43.412;24.612;2022-10-15T04:31:45;100476.38;;;10.81;100.00
11672;BME280;5892;43.412;24.612;2022-10-15T04:34:14;100474.63;;;10.85;100.00
11672;BME280;5892;43.412;24.612;2022-10-15T04:36:41;100474.94;;;10.84;100.00
11672;BME280;5892;43.412;24.612;2022-10-15T04:39:07;100496.25;;;10.87;100.00
11672;BME280;5892;43.412;24.612;2022-10-15T04:41:34;100481.56;;;10.83;100.00
11672;BME280;5892;43.412;24.612;2022-10-15T04:44:01;100475.47;;;10.72;100.00
11672;BME280;5892;43.412;24.612;2022-10-15T04:46:28;100492.19;;;10.84;100.00
11672;BME280;5892;43.412;24.612;2022-10-15T04:48:56;100497.09;;;10.74;100.00
11672;BME280;5892;43.412;24.612;2022-10-15T04:51:24;100502.56;;;10.74;100.00
11672;BME280;5892;43.412;24.612;2022-10-15T04:53:52;100500.75;;;10.69;100.00
11672;BME280;5892;43.412;24.612;2022-10-15T04:56:20;100506.63;;;10.76;100.00
11672;BME280;5892;43.412;24.612;2022-10-15T04:58:48;100508.88;;;10.74;100.00
11672;BME280;5892;43.412;24.612;2022-10-15T05:01:18;100511.72;;;10.83;100.00
11672;BME280;5892;43.412;24.612;2022-10-15T05:03:46;100512.00;;;10.81;100.00
11672;BME280;5892;43.412;24.612;2022-10-15T05:06:17;100501.16;;;10.76;100.00
11672;BME280;5892;43.412;24.612;2022-10-15T05:08:45;100515.28;;;10.83;100.00
11672;BME280;5892;43.412;24.612;2022-10-15T05:11:14;100527.84;;;10.84;100.00
11672;BME280;5892;43.412;24.612;2022-10-15T05:13:41;100529.06;;;10.92;100.00
11672;BME280;5892;43.412;24.612;2022-10-15T05:16:10;100516.16;;;10.92;100.00
11672;BME280;5892;43.412;24.612;2022-10-15T05:18:37;100540.66;;;11.25;100.00
11672;BME280;5892;43.412;24.612;2022-10-15T05:21:05;100541.59;;;11.42;100.00
11672;BME280;5892;43.412;24.612;2022-10-15T05:23:34;100533.78;;;11.50;100.00
11672;BME280;5892;43.412;24.612;2022-10-15T05:26:02;100554.84;;;11.63;100.00
11672;BME280;5892;43.412;24.612;2022-10-15T05:28:31;100549.47;;;11.58;100.00
11672;BME280;5892;43.412;24.612;2022-10-15T05:31:02;100558.22;;;11.60;100.00
11672;BME280;5892;43.412;24.612;2022-10-15T05:33:29;100557.25;;;11.42;100.00
11672;BME280;5892;43.412;24.612;2022-10-15T05:35:56;100561.09;;;11.55;100.00
11672;BME280;5892;43.412;24.612;2022-10-15T05:38:23;100555.34;;;11.65;99.46
11672;BME280;5892;43.412;24.612;2022-10-15T05:40:51;100572.13;;;11.77;98.52
11672;BME280;5892;43.412;24.612;2022-10-15T05:43:18;100568.09;;;11.83;96.73
11672;BME280;5892;43.412;24.612;2022-10-15T05:45:45;100571.75;;;11.92;95.30
11672;BME280;5892;43.412;24.612;2022-10-15T05:48:12;100565.59;;;11.95;95.60
11672;BME280;5892;43.412;24.612;2022-10-15T05:50:40;100571.22;;;12.12;94.08
11672;BME280;5892;43.412;24.612;2022-10-15T05:53:06;100574.75;;;12.35;92.85
11672;BME280;5892;43.412;24.612;2022-10-15T05:55:33;100578.94;;;12.41;91.43
11672;BME280;5892;43.412;24.612;2022-10-15T05:58:03;100558.84;;;12.23;90.56
11672;BME280;5892;43.412;24.612;2022-10-15T06:00:30;100581.75;;;12.50;90.16
11672;BME280;5892;43.412;24.612;2022-10-15T06:02:58;100573.16;;;12.43;88.63
11672;BME280;5892;43.412;24.612;2022-10-15T06:05:25;100577.53;;;12.44;87.83
11672;BME280;5892;43.412;24.612;2022-10-15T06:07:52;100583.19;;;12.47;87.13
11672;BME280;5892;43.412;24.612;2022-10-15T06:10:19;100594.69;;;12.49;85.65
11672;BME280;5892;43.412;24.612;2022-10-15T06:12:48;100605.63;;;12.41;86.03
11672;BME280;5892;43.412;24.612;2022-10-15T06:15:17;100596.97;;;12.25;85.71
11672;BME280;5892;43.412;24.612;2022-10-15T06:17:44;100593.59;;;12.28;86.23
11672;BME280;5892;43.412;24.612;2022-10-15T06:20:11;100608.59;;;12.53;84.93
11672;BME280;5892;43.412;24.612;2022-10-15T06:22:38;100599.59;;;12.61;82.38
11672;BME280;5892;43.412;24.612;2022-10-15T06:25:06;100616.75;;;12.36;81.90
11672;BME280;5892;43.412;24.612;2022-10-15T06:27:33;100606.53;;;12.27;82.65
11672;BME280;5892;43.412;24.612;2022-10-15T06:30:00;100583.91;;;12.30;82.18
11672;BME280;5892;43.412;24.612;2022-10-15T06:32:29;100575.25;;;12.46;80.74
11672;BME280;5892;43.412;24.612;2022-10-15T06:34:56;100609.81;;;12.69;79.36
11672;BME280;5892;43.412;24.612;2022-10-15T06:37:24;100610.06;;;12.98;78.61
11672;BME280;5892;43.412;24.612;2022-10-15T06:39:51;100605.38;;;12.99;78.16
11672;BME280;5892;43.412;24.612;2022-10-15T06:42:18;100610.56;;;13.00;76.19
11672;BME280;5892;43.412;24.612;2022-10-15T06:44:45;100628.72;;;13.10;74.87
11672;BME280;5892;43.412;24.612;2022-10-15T06:47:12;100617.28;;;13.17;75.23
11672;BME280;5892;43.412;24.612;2022-10-15T06:49:40;100606.13;;;13.13;74.67
11672;BME280;5892;43.412;24.612;2022-10-15T06:52:07;100612.91;;;13.24;73.63
11672;BME280;5892;43.412;24.612;2022-10-15T06:54:34;100614.72;;;13.46;74.13
11672;BME280;5892;43.412;24.612;2022-10-15T06:57:00;100620.59;;;13.70;71.57
11672;BME280;5892;43.412;24.612;2022-10-15T06:59:27;100626.09;;;13.87;70.50
11672;BME280;5892;43.412;24.612;2022-10-15T07:01:54;100630.81;;;13.87;68.77
11672;BME280;5892;43.412;24.612;2022-10-15T07:04:23;100624.97;;;13.80;68.86
11672;BME280;5892;43.412;24.612;2022-10-15T07:06:51;100624.34;;;13.91;68.45
11672;BME280;5892;43.412;24.612;2022-10-15T07:09:18;100602.47;;;13.86;67.42
11672;BME280;5892;43.412;24.612;2022-10-15T07:11:45;100612.97;;;14.02;67.30
11672;BME280;5892;43.412;24.612;2022-10-15T07:14:12;100629.63;;;14.14;66.26
11672;BME280;5892;43.412;24.612;2022-10-15T07:16:38;100625.75;;;14.15;65.60
11672;BME280;5892;43.412;24.612;2022-10-15T07:19:05;100625.59;;;14.28;65.83
11672;BME280;5892;43.412;24.612;2022-10-15T07:21:32;100629.63;;;14.39;64.97
11672;BME280;5892;43.412;24.612;2022-10-15T07:24:00;100631.41;;;14.27;64.41
11672;BME280;5892;43.412;24.612;2022-10-15T07:26:27;100626.72;;;14.19;65.00
11672;BME280;5892;43.412;24.612;2022-10-15T07:28:55;100626.22;;;14.25;65.34
11672;BME280;5892;43.412;24.612;2022-10-15T07:31:22;100641.13;;;14.33;65.22
11672;BME280;5892;43.412;24.612;2022-10-15T07:33:51;100631.59;;;14.22;64.96
11672;BME280;5892;43.412;24.612;2022-10-15T07:36:18;100639.53;;;14.23;64.79
11672;BME280;5892;43.412;24.612;2022-10-15T07:38:46;100633.84;;;14.20;64.84
11672;BME280;5892;43.412;24.612;2022-10-15T07:41:14;100595.72;;;14.30;64.84
11672;BME280;5892;43.412;24.612;2022-10-15T07:43:41;100630.97;;;14.71;64.15
11672;BME280;5892;43.412;24.612;2022-10-15T07:46:09;100620.38;;;14.91;63.35
11672;BME280;5892;43.412;24.612;2022-10-15T07:48:36;100613.97;;;14.69;61.22
11672;BME280;5892;43.412;24.612;2022-10-15T07:51:05;100636.31;;;14.85;61.88
11672;BME280;5892;43.412;24.612;2022-10-15T07:53:32;100627.13;;;15.02;62.00
11672;BME280;5892;43.412;24.612;2022-10-15T07:56:01;100615.41;;;15.05;62.18
11672;BME280;5892;43.412;24.612;2022-10-15T07:58:29;100644.50;;;15.32;61.50
11672;BME280;5892;43.412;24.612;2022-10-15T08:00:59;100643.22;;;15.29;61.01
11672;BME280;5892;43.412;24.612;2022-10-15T08:03:26;100633.47;;;15.32;61.63
11672;BME280;5892;43.412;24.612;2022-10-15T08:05:53;100628.78;;;15.23;61.73
11672;BME280;5892;43.412;24.612;2022-10-15T08:08:21;100613.91;;;15.16;61.66
11672;BME280;5892;43.412;24.612;2022-10-15T08:10:48;100608.28;;;15.04;62.50
11672;BME280;5892;43.412;24.612;2022-10-15T08:13:15;100642.06;;;15.30;62.24
11672;BME280;5892;43.412;24.612;2022-10-15T08:15:43;100631.78;;;15.39;63.03
11672;BME280;5892;43.412;24.612;2022-10-15T08:18:10;100616.97;;;15.44;62.33
11672;BME280;5892;43.412;24.612;2022-10-15T08:20:38;100635.88;;;15.62;62.72
11672;BME280;5892;43.412;24.612;2022-10-15T08:23:06;100626.44;;;15.63;62.13
11672;BME280;5892;43.412;24.612;2022-10-15T08:25:39;100651.06;;;15.48;63.51
11672;BME280;5892;43.412;24.612;2022-10-15T08:28:07;100642.69;;;15.36;64.08
11672;BME280;5892;43.412;24.612;2022-10-15T08:30:35;100631.97;;;15.34;64.39
11672;BME280;5892;43.412;24.612;2022-10-15T08:33:03;100642.44;;;15.49;64.15
11672;BME280;5892;43.412;24.612;2022-10-15T08:35:30;100637.78;;;15.41;64.61
11672;BME280;5892;43.412;24.612;2022-10-15T08:38:03;100619.25;;;15.42;64.44
11672;BME280;5892;43.412;24.612;2022-10-15T08:40:30;100624.41;;;15.73;64.55
11672;BME280;5892;43.412;24.612;2022-10-15T08:42:58;100622.94;;;15.96;63.85
11672;BME280;5892;43.412;24.612;2022-10-15T08:45:27;100623.91;;;16.12;63.21
11672;BME280;5892;43.412;24.612;2022-10-15T08:47:57;100618.22;;;16.29;62.91
11672;BME280;5892;43.412;24.612;2022-10-15T08:50:35;100595.50;;;16.24;62.40
11672;BME280;5892;43.412;24.612;2022-10-15T08:53:04;100624.97;;;16.52;62.24
11672;BME280;5892;43.412;24.612;2022-10-15T08:55:38;100630.72;;;16.47;61.72
11672;BME280;5892;43.412;24.612;2022-10-15T08:58:13;100619.00;;;16.63;61.31
11672;BME280;5892;43.412;24.612;2022-10-15T09:00:46;100626.34;;;16.46;61.92
11672;BME280;5892;43.412;24.612;2022-10-15T09:03:32;100628.66;;;16.57;62.05
11672;BME280;5892;43.412;24.612;2022-10-15T09:06:07;100616.69;;;16.65;61.21
11672;BME280;5892;43.412;24.612;2022-10-15T09:08:47;100614.75;;;16.77;60.53
11672;BME280;5892;43.412;24.612;2022-10-15T09:11:25;100631.47;;;16.81;60.09
11672;BME280;5892;43.412;24.612;2022-10-15T09:13:56;100617.88;;;16.76;60.59
11672;BME280;5892;43.412;24.612;2022-10-15T09:16:28;100614.81;;;16.57;61.22
11672;BME280;5892;43.412;24.612;2022-10-15T09:18:59;100578.97;;;16.48;60.39
11672;BME280;5892;43.412;24.612;2022-10-15T09:21:31;100628.34;;;16.70;60.32
11672;BME280;5892;43.412;24.612;2022-10-15T09:24:02;100547.44;;;16.16;60.55
11672;BME280;5892;43.412;24.612;2022-10-15T09:26:32;100593.38;;;16.53;60.25
11672;BME280;5892;43.412;24.612;2022-10-15T09:29:05;100611.63;;;16.67;60.21
11672;BME280;5892;43.412;24.612;2022-10-15T09:31:46;100625.13;;;16.80;60.07
11672;BME280;5892;43.412;24.612;2022-10-15T09:34:20;100629.88;;;16.92;59.97
11672;BME280;5892;43.412;24.612;2022-10-15T09:36:53;100628.72;;;16.93;59.57
11672;BME280;5892;43.412;24.612;2022-10-15T09:42:26;100589.50;;;16.91;58.57
11672;BME280;5892;43.412;24.612;2022-10-15T09:44:56;100580.53;;;16.94;58.55
11672;BME280;5892;43.412;24.612;2022-10-15T09:47:27;100602.75;;;17.22;58.75
11672;BME280;5892;43.412;24.612;2022-10-15T09:49:56;100615.91;;;17.13;59.33
11672;BME280;5892;43.412;24.612;2022-10-15T09:52:33;100609.81;;;16.95;59.69
11672;BME280;5892;43.412;24.612;2022-10-15T09:55:22;100611.88;;;16.86;60.05
11672;BME280;5892;43.412;24.612;2022-10-15T09:57:56;100604.97;;;16.92;60.73
11672;BME280;5892;43.412;24.612;2022-10-15T10:00:24;100602.22;;;17.16;59.13
11672;BME280;5892;43.412;24.612;2022-10-15T10:03:03;100604.38;;;17.23;59.68
11672;BME280;5892;43.412;24.612;2022-10-15T10:05:32;100561.25;;;17.10;59.68
11672;BME280;5892;43.412;24.612;2022-10-15T10:08:09;100597.34;;;17.13;59.33
11672;BME280;5892;43.412;24.612;2022-10-15T10:10:37;100596.19;;;17.02;60.38
11672;BME280;5892;43.412;24.612;2022-10-15T10:13:16;100591.91;;;17.17;60.22
11672;BME280;5892;43.412;24.612;2022-10-15T10:15:46;100606.81;;;17.12;60.29
11672;BME280;5892;43.412;24.612;2022-10-15T10:18:18;100594.25;;;17.15;60.16
11672;BME280;5892;43.412;24.612;2022-10-15T10:20:52;100596.63;;;17.28;60.12
11672;BME280;5892;43.412;24.612;2022-10-15T10:23:24;100590.84;;;17.33;59.63
11672;BME280;5892;43.412;24.612;2022-10-15T10:25:55;100605.50;;;17.46;59.35
11672;BME280;5892;43.412;24.612;2022-10-15T10:28:26;100597.28;;;17.74;58.41
11672;BME280;5892;43.412;24.612;2022-10-15T10:31:01;100598.66;;;17.96;57.91
11672;BME280;5892;43.412;24.612;2022-10-15T10:33:31;100597.84;;;17.95;57.56
11672;BME280;5892;43.412;24.612;2022-10-15T10:36:00;100572.91;;;17.67;57.90
11672;BME280;5892;43.412;24.612;2022-10-15T10:38:40;100601.38;;;17.80;58.20
11672;BME280;5892;43.412;24.612;2022-10-15T10:41:10;100599.69;;;18.03;57.33
11672;BME280;5892;43.412;24.612;2022-10-15T10:43:59;100597.50;;;18.25;56.21
11672;BME280;5892;43.412;24.612;2022-10-15T10:46:29;100594.09;;;18.15;56.56
11672;BME280;5892;43.412;24.612;2022-10-15T10:48:59;100593.69;;;18.45;55.97
11672;BME280;5892;43.412;24.612;2022-10-15T10:51:26;100563.09;;;18.41;55.39
11672;BME280;5892;43.412;24.612;2022-10-15T10:53:59;100570.75;;;18.48;54.67
11672;BME280;5892;43.412;24.612;2022-10-15T10:56:32;100582.47;;;18.26;55.40
11672;BME280;5892;43.412;24.612;2022-10-15T10:59:02;100580.28;;;18.03;56.33
11672;BME280;5892;43.412;24.612;2022-10-15T11:01:39;100569.41;;;17.83;56.95
11672;BME280;5892;43.412;24.612;2022-10-15T11:04:11;100570.25;;;17.71;57.46
11672;BME280;5892;43.412;24.612;2022-10-15T11:06:58;100566.91;;;17.65;58.60
11672;BME280;5892;43.412;24.612;2022-10-15T11:09:46;100567.94;;;17.73;58.26
11672;BME280;5892;43.412;24.612;2022-10-15T11:12:29;100562.00;;;17.47;59.12
11672;BME280;5892;43.412;24.612;2022-10-15T11:15:12;100546.59;;;17.21;59.09
11672;BME280;5892;43.412;24.612;2022-10-15T11:17:46;100584.63;;;17.36;59.68
11672;BME280;5892;43.412;24.612;2022-10-15T11:20:23;100567.06;;;17.32;60.16
11672;BME280;5892;43.412;24.612;2022-10-15T11:23:04;100559.41;;;17.66;58.87
11672;BME280;5892;43.412;24.612;2022-10-15T11:25:42;100561.00;;;17.79;58.27
11672;BME280;5892;43.412;24.612;2022-10-15T11:28:28;100558.69;;;17.97;58.21
11672;BME280;5892;43.412;24.612;2022-10-15T11:31:09;100544.28;;;17.91;57.17
11672;BME280;5892;43.412;24.612;2022-10-15T11:33:51;100551.41;;;18.04;57.20
11672;BME280;5892;43.412;24.612;2022-10-15T11:36:40;100546.56;;;18.17;57.75
11672;BME280;5892;43.412;24.612;2022-10-15T11:39:27;100549.28;;;18.45;56.18
11672;BME280;5892;43.412;24.612;2022-10-15T11:42:13;100539.69;;;18.42;56.05
11672;BME280;5892;43.412;24.612;2022-10-15T11:45:27;100561.38;;;18.37;56.49
11672;BME280;5892;43.412;24.612;2022-10-15T11:48:02;100546.75;;;17.81;58.52
11672;BME280;5892;43.412;24.612;2022-10-15T11:50:34;100545.56;;;17.54;59.64
11672;BME280;5892;43.412;24.612;2022-10-15T11:53:28;100558.06;;;17.48;59.90
11672;BME280;5892;43.412;24.612;2022-10-15T11:56:01;100540.59;;;17.59;60.17
11672;BME280;5892;43.412;24.612;2022-10-15T11:58:34;100561.50;;;17.69;60.30
11672;BME280;5892;43.412;24.612;2022-10-15T12:01:09;100550.53;;;17.60;60.06
11672;BME280;5892;43.412;24.612;2022-10-15T12:03:44;100546.50;;;17.58;60.20
11672;BME280;5892;43.412;24.612;2022-10-15T12:06:16;100531.69;;;17.54;59.82
11672;BME280;5892;43.412;24.612;2022-10-15T12:08:47;100546.50;;;17.46;60.19
11672;BME280;5892;43.412;24.612;2022-10-15T12:11:27;100562.78;;;17.47;59.74
11672;BME280;5892;43.412;24.612;2022-10-15T12:14:13;100560.72;;;17.44;59.33
11672;BME280;5892;43.412;24.612;2022-10-15T12:16:45;100515.19;;;17.17;58.94
11672;BME280;5892;43.412;24.612;2022-10-15T12:19:19;100559.78;;;17.52;57.96
11672;BME280;5892;43.412;24.612;2022-10-15T12:22:03;100567.69;;;17.78;57.71
11672;BME280;5892;43.412;24.612;2022-10-15T12:24:51;100564.78;;;18.02;56.27
11672;BME280;5892;43.412;24.612;2022-10-15T12:27:23;100562.13;;;18.21;55.05
11672;BME280;5892;43.412;24.612;2022-10-15T12:30:19;100557.03;;;18.67;53.81
11672;BME280;5892;43.412;24.612;2022-10-15T12:32:47;100548.94;;;18.93;52.10
11672;BME280;5892;43.412;24.612;2022-10-15T12:35:22;100531.22;;;18.82;51.43
11672;BME280;5892;43.412;24.612;2022-10-15T12:37:50;100522.22;;;19.04;51.56
11672;BME280;5892;43.412;24.612;2022-10-15T12:40:26;100543.09;;;19.33;51.49
11672;BME280;5892;43.412;24.612;2022-10-15T12:42:56;100554.50;;;19.28;51.24
11672;BME280;5892;43.412;24.612;2022-10-15T12:45:33;100541.75;;;19.08;52.22
11672;BME280;5892;43.412;24.612;2022-10-15T12:48:20;100549.84;;;18.82;53.51
11672;BME280;5892;43.412;24.612;2022-10-15T12:50:47;100545.19;;;18.70;54.05
11672;BME280;5892;43.412;24.612;2022-10-15T12:53:30;100542.59;;;18.46;54.73
11672;BME280;5892;43.412;24.612;2022-10-15T12:56:21;100548.28;;;18.53;54.56
11672;BME280;5892;43.412;24.612;2022-10-15T12:58:50;100547.00;;;18.63;54.60
11672;BME280;5892;43.412;24.612;2022-10-15T13:01:29;100547.69;;;18.75;54.25
11672;BME280;5892;43.412;24.612;2022-10-15T13:04:15;100549.00;;;18.97;53.75
11672;BME280;5892;43.412;24.612;2022-10-15T13:06:43;100541.66;;;19.04;53.33
11672;BME280;5892;43.412;24.612;2022-10-15T13:09:26;100554.78;;;18.88;53.34